Time;durP1;ratioP1;P1;durP2;ratioP2;P2;SDS_P1;SDS_P2;PMS_P1;PMS_P2;Temp;Humidity;BMP_temperature;BMP_pressure;BME280_temperature;BME280_humidity;BME280_pressure;Samples;Min_cycle;Max_cycle;Signal;HPM_P1;HPM_P2
2022/01/09 00:00:56;;;;;;;0.50;0.50;;;;;;;1.37;100.00;99459.47;5030549;28;20530;-78
2022/01/09 00:03:21;;;;;;;0.50;0.50;;;;;;;1.26;100.00;99452.56;5030714;28;20272;-78
2022/01/09 00:05:47;;;;;;;0.40;0.40;;;;;;;1.13;100.00;99449.41;5013551;28;20926;-76
2022/01/09 00:08:13;;;;;;;0.50;0.50;;;;;;;1.20;100.00;99462.91;5018084;28;20021;-76
2022/01/09 00:10:45;;;;;;;0.50;0.50;;;;;;;1.24;100.00;99470.41;5044648;28;20490;-76
2022/01/09 00:13:11;;;;;;;0.50;0.50;;;;;;;1.18;100.00;99449.81;5027696;28;20119;-76
2022/01/09 00:15:40;;;;;;;0.50;0.50;;;;;;;1.10;100.00;99447.91;5015694;28;21661;-78
2022/01/09 00:18:05;;;;;;;0.45;0.45;;;;;;;1.17;100.00;99450.81;5031774;28;20036;-76
2022/01/09 00:20:31;;;;;;;0.50;0.50;;;;;;;1.27;100.00;99456.88;5011982;28;20044;-76
2022/01/09 00:22:57;;;;;;;0.50;0.50;;;;;;;1.20;100.00;99460.28;5012505;28;20032;-76
2022/01/09 00:25:24;;;;;;;0.50;0.50;;;;;;;1.34;100.00;99477.47;5034072;28;20067;-75
2022/01/09 00:27:50;;;;;;;0.40;0.40;;;;;;;1.23;100.00;99468.75;5027865;28;20029;-77
2022/01/09 00:30:21;;;;;;;0.50;0.50;;;;;;;1.28;100.00;99484.19;5038062;28;20021;-78
2022/01/09 00:32:47;;;;;;;0.50;0.50;;;;;;;1.45;100.00;99496.63;5008406;28;20158;-79
2022/01/09 00:35:21;;;;;;;0.43;0.43;;;;;;;1.56;100.00;99498.22;5046388;28;20430;-76
2022/01/09 00:37:47;;;;;;;0.50;0.50;;;;;;;1.69;100.00;99487.28;5041639;28;20141;-78
2022/01/09 00:40:14;;;;;;;0.40;0.40;;;;;;;1.64;100.00;99477.16;5040272;28;20159;-76
2022/01/09 00:42:40;;;;;;;0.50;0.50;;;;;;;1.49;100.00;99476.81;5021504;28;20056;-76
2022/01/09 00:45:06;;;;;;;0.50;0.50;;;;;;;1.46;100.00;99484.25;5043047;28;20533;-77
2022/01/09 00:47:32;;;;;;;0.40;0.40;;;;;;;1.43;100.00;99484.50;5015106;28;20065;-77
2022/01/09 00:49:59;;;;;;;0.50;0.50;;;;;;;1.55;100.00;99488.63;5046594;28;20064;-77
2022/01/09 00:52:24;;;;;;;0.43;0.43;;;;;;;1.69;100.00;99481.97;5043245;28;20032;-77
2022/01/09 00:54:50;;;;;;;0.50;0.50;;;;;;;1.83;100.00;99483.31;5028110;28;20029;-76
2022/01/09 00:57:16;;;;;;;0.50;0.50;;;;;;;1.92;100.00;99469.13;5009132;28;20136;-78
2022/01/09 00:59:42;;;;;;;0.40;0.40;;;;;;;1.90;100.00;99476.38;5031243;28;20125;-77
2022/01/09 01:02:07;;;;;;;0.50;0.50;;;;;;;1.80;100.00;99449.13;5040246;28;20365;-79
2022/01/09 01:04:35;;;;;;;0.40;0.40;;;;;;;1.84;100.00;99439.91;5038932;28;20037;-79
2022/01/09 01:07:01;;;;;;;0.40;0.40;;;;;;;2.06;100.00;99465.09;5041212;28;20027;-80
2022/01/09 01:09:30;;;;;;;0.45;0.45;;;;;;;2.07;100.00;99443.75;5042662;28;20069;-79
2022/01/09 01:12:00;;;;;;;0.50;0.50;;;;;;;2.22;100.00;99451.97;5038869;28;20040;-78
2022/01/09 01:14:27;;;;;;;0.50;0.50;;;;;;;2.19;100.00;99461.06;5022639;28;20037;-79
2022/01/09 01:16:58;;;;;;;0.50;0.50;;;;;;;2.05;100.00;99461.63;5023658;28;20051;-77
2022/01/09 01:19:26;;;;;;;0.40;0.40;;;;;;;1.95;100.00;99467.00;5023057;28;20040;-78
2022/01/09 01:21:52;;;;;;;0.60;0.60;;;;;;;1.86;100.00;99453.84;5038157;28;20086;-78
2022/01/09 01:24:18;;;;;;;0.50;0.50;;;;;;;1.83;100.00;99462.09;5036963;28;20115;-78
2022/01/09 01:26:44;;;;;;;0.50;0.50;;;;;;;1.80;100.00;99465.88;5019596;28;20025;-80
2022/01/09 01:29:10;;;;;;;0.40;0.40;;;;;;;1.80;100.00;99468.53;5042727;28;20025;-77
2022/01/09 01:31:36;;;;;;;0.50;0.50;;;;;;;1.68;100.00;99457.31;5044022;28;20037;-77
2022/01/09 01:34:02;;;;;;;0.50;0.50;;;;;;;1.74;100.00;99469.13;5011899;28;20162;-79
2022/01/09 01:36:28;;;;;;;0.40;0.40;;;;;;;1.71;100.00;99466.78;5022596;28;20033;-78
2022/01/09 01:38:53;;;;;;;0.40;0.40;;;;;;;1.85;100.00;99486.59;5008399;28;20033;-78
2022/01/09 01:41:19;;;;;;;0.90;0.90;;;;;;;2.09;100.00;99501.91;5023386;28;20214;-79
2022/01/09 01:43:45;;;;;;;0.40;0.40;;;;;;;2.39;100.00;99506.00;5023221;28;20531;-76
2022/01/09 01:46:11;;;;;;;0.50;0.50;;;;;;;2.51;100.00;99503.91;5016502;28;20037;-78
2022/01/09 01:48:36;;;;;;;0.50;0.50;;;;;;;2.58;100.00;99489.88;5005624;28;20479;-80
2022/01/09 01:51:02;;;;;;;0.40;0.40;;;;;;;2.56;100.00;99489.19;5009423;28;20041;-79
2022/01/09 01:53:28;;;;;;;0.40;0.40;;;;;;;2.42;100.00;99506.50;5034854;28;20025;-80
2022/01/09 01:55:56;;;;;;;0.40;0.40;;;;;;;2.09;100.00;99491.31;5037991;28;20479;-79
2022/01/09 01:58:23;;;;;;;2.10;0.70;;;;;;;2.02;100.00;99483.13;5005989;28;20033;-80
2022/01/09 02:00:49;;;;;;;0.40;0.40;;;;;;;1.96;100.00;99489.06;5038896;28;20082;-77
2022/01/09 02:03:15;;;;;;;0.50;0.50;;;;;;;1.90;100.00;99500.25;5023198;28;20029;-79
2022/01/09 02:05:43;;;;;;;0.50;0.50;;;;;;;1.64;100.00;99486.91;5036579;28;20056;-79
2022/01/09 02:08:09;;;;;;;0.40;0.40;;;;;;;1.68;100.00;99509.47;5020595;28;21865;-79
2022/01/09 02:10:39;;;;;;;0.50;0.50;;;;;;;1.58;100.00;99504.22;5004043;28;21642;-78
2022/01/09 02:13:04;;;;;;;0.50;0.50;;;;;;;1.56;100.00;99505.34;5039205;28;20045;-79
2022/01/09 02:15:38;;;;;;;0.50;0.50;;;;;;;1.41;100.00;99492.63;5035727;28;20033;-77
2022/01/09 02:18:09;;;;;;;0.50;0.50;;;;;;;1.47;100.00;99517.69;5039771;28;20032;-78
2022/01/09 02:20:36;;;;;;;0.40;0.40;;;;;;;1.40;100.00;99508.66;5039370;28;20033;-80
2022/01/09 02:23:03;;;;;;;0.50;0.50;;;;;;;1.49;100.00;99500.66;5035612;28;20522;-79
2022/01/09 02:25:29;;;;;;;0.50;0.50;;;;;;;1.50;100.00;99483.78;5033811;28;20082;-77
2022/01/09 02:27:55;;;;;;;0.50;0.50;;;;;;;1.73;100.00;99499.25;5035002;28;20459;-78
2022/01/09 02:30:20;;;;;;;0.50;0.50;;;;;;;1.97;100.00;99504.78;5043561;28;20032;-76
2022/01/09 02:32:46;;;;;;;0.50;0.50;;;;;;;2.14;100.00;99500.50;5000656;28;20025;-80
2022/01/09 02:35:12;;;;;;;0.43;0.43;;;;;;;2.31;100.00;99524.50;5020305;28;20216;-79
2022/01/09 02:37:37;;;;;;;0.40;0.40;;;;;;;2.42;100.00;99521.59;5037614;28;20552;-78
2022/01/09 02:40:05;;;;;;;0.50;0.50;;;;;;;2.52;100.00;99500.28;5016270;28;20044;-76
2022/01/09 02:42:31;;;;;;;0.50;0.50;;;;;;;2.69;100.00;99511.84;5044585;28;20025;-78
2022/01/09 02:44:58;;;;;;;0.40;0.40;;;;;;;2.53;100.00;99470.09;5024911;28;20037;-80
2022/01/09 02:47:30;;;;;;;0.60;0.60;;;;;;;2.79;100.00;99500.13;5033270;28;20102;-76
2022/01/09 02:50:02;;;;;;;0.40;0.40;;;;;;;2.91;100.00;99511.31;5006000;28;20078;-80
2022/01/09 02:52:35;;;;;;;0.45;0.45;;;;;;;2.88;100.00;99497.53;5032582;28;21110;-79
2022/01/09 02:55:12;;;;;;;;;;;;;;;2.86;100.00;99511.78;5009554;28;21424;-76
2022/01/09 02:57:42;;;;;;;0.40;0.40;;;;;;;2.73;100.00;99513.22;5022731;28;19979;-79
2022/01/09 03:00:10;;;;;;;0.50;0.50;;;;;;;2.50;100.00;99497.78;5004932;28;20136;-77
2022/01/09 03:02:36;;;;;;;0.47;0.47;;;;;;;2.57;100.00;99522.72;5004160;28;20045;-78
2022/01/09 03:05:02;;;;;;;0.40;0.40;;;;;;;2.47;100.00;99521.16;5018238;28;20055;-78
2022/01/09 03:07:28;;;;;;;0.47;0.47;;;;;;;2.37;100.00;99530.00;5040147;28;20363;-78
2022/01/09 03:09:53;;;;;;;0.50;0.50;;;;;;;2.22;100.00;99507.66;5004572;28;22375;-80
2022/01/09 03:12:19;;;;;;;0.50;0.50;;;;;;;2.23;100.00;99511.16;5041626;28;20029;-78
2022/01/09 03:14:46;;;;;;;0.40;0.40;;;;;;;2.11;100.00;99516.69;5020426;28;20226;-78
2022/01/09 03:17:12;;;;;;;0.50;0.50;;;;;;;2.08;100.00;99506.38;5020670;28;20036;-78
2022/01/09 03:19:38;;;;;;;0.50;0.50;;;;;;;2.31;100.00;99538.59;5023206;28;20021;-79
2022/01/09 03:22:03;;;;;;;0.50;0.50;;;;;;;2.51;100.00;99533.91;5040902;28;20037;-78
2022/01/09 03:24:29;;;;;;;0.50;0.50;;;;;;;2.76;100.00;99526.16;5039503;28;20406;-80
2022/01/09 03:26:55;;;;;;;0.50;0.50;;;;;;;2.89;100.00;99529.22;5021460;28;20048;-77
2022/01/09 03:29:20;;;;;;;1.63;1.52;;;;;;;2.89;100.00;99518.63;5035361;28;20037;-78
2022/01/09 03:31:46;;;;;;;0.50;0.50;;;;;;;2.80;100.00;99506.25;5022636;28;20060;-80
2022/01/09 03:34:12;;;;;;;0.50;0.50;;;;;;;2.86;100.00;99526.91;5024247;28;20036;-77
2022/01/09 03:36:37;;;;;;;0.50;0.50;;;;;;;2.84;100.00;99535.00;5041134;28;20035;-77
2022/01/09 03:39:03;;;;;;;0.40;0.40;;;;;;;2.80;100.00;99523.00;5037808;28;20597;-79
2022/01/09 03:41:29;;;;;;;0.50;0.50;;;;;;;2.76;100.00;99531.47;5008614;28;20052;-78
2022/01/09 03:43:54;;;;;;;0.40;0.40;;;;;;;2.89;100.00;99539.84;5038892;28;21309;-77
2022/01/09 03:46:20;;;;;;;0.50;0.50;;;;;;;2.97;100.00;99513.34;5044438;28;20037;-78
2022/01/09 03:48:45;;;;;;;0.50;0.50;;;;;;;3.14;100.00;99530.19;5013707;28;20135;-77
2022/01/09 03:51:25;;;;;;;4.03;0.98;;;;;;;3.26;100.00;99533.41;5033276;28;20563;-77
2022/01/09 03:53:52;;;;;;;0.90;0.90;;;;;;;3.36;100.00;99522.66;5030591;28;20044;-78
2022/01/09 03:56:20;;;;;;;4.25;1.02;;;;;;;3.39;100.00;99514.38;5043279;28;20510;-79
2022/01/09 03:58:46;;;;;;;0.70;0.70;;;;;;;3.38;100.00;99502.91;5007314;28;20114;-77
2022/01/09 04:01:11;;;;;;;1.65;0.93;;;;;;;3.29;100.00;99509.19;5023399;28;20492;-77
2022/01/09 04:03:37;;;;;;;0.50;0.50;;;;;;;3.23;100.00;99526.59;5042063;28;20070;-78
2022/01/09 04:06:04;;;;;;;0.45;0.45;;;;;;;3.09;100.00;99505.94;5017600;28;20051;-79
2022/01/09 04:08:31;;;;;;;0.50;0.50;;;;;;;3.00;100.00;99505.06;5032083;28;20033;-79
2022/01/09 04:10:56;;;;;;;0.40;0.40;;;;;;;2.80;100.00;99487.69;5054509;28;20041;-77
2022/01/09 04:13:22;;;;;;;0.50;0.50;;;;;;;2.78;100.00;99502.94;5020827;28;20099;-77
2022/01/09 04:15:51;;;;;;;0.50;0.50;;;;;;;2.97;100.00;99513.34;5036793;28;20041;-78
2022/01/09 04:18:21;;;;;;;4.47;0.85;;;;;;;3.16;100.00;99538.00;5010792;28;20047;-77
2022/01/09 04:20:48;;;;;;;0.50;0.50;;;;;;;3.27;100.00;99551.84;5053708;28;20033;-77
2022/01/09 04:23:14;;;;;;;8.48;0.80;;;;;;;3.35;100.00;99529.78;5032697;28;20044;-77
2022/01/09 04:25:40;;;;;;;5.15;1.30;;;;;;;3.35;100.00;99526.31;5005166;28;20394;-77
2022/01/09 04:28:06;;;;;;;0.68;0.68;;;;;;;3.39;100.00;99522.34;5008061;28;20029;-78
2022/01/09 04:30:32;;;;;;;0.40;0.40;;;;;;;3.39;100.00;99517.03;5006396;28;20032;-77
2022/01/09 04:32:58;;;;;;;3.50;1.73;;;;;;;3.35;100.00;99494.44;5038566;28;20382;-78
2022/01/09 04:35:23;;;;;;;0.50;0.50;;;;;;;3.42;100.00;99509.56;5003995;28;20123;-78
2022/01/09 04:37:53;;;;;;;0.50;0.50;;;;;;;3.41;100.00;99510.53;5022089;28;20068;-77
2022/01/09 04:40:20;;;;;;;1.50;1.45;;;;;;;3.46;100.00;99497.63;5011827;28;20063;-76
2022/01/09 04:42:58;;;;;;;0.50;0.50;;;;;;;3.37;100.00;99514.53;5008287;28;20482;-79
2022/01/09 04:45:25;;;;;;;0.60;0.60;;;;;;;3.23;100.00;99523.13;5036513;28;20033;-79
2022/01/09 04:47:52;;;;;;;0.50;0.50;;;;;;;3.04;100.00;99527.66;5019385;28;20037;-79
2022/01/09 04:50:23;;;;;;;0.50;0.50;;;;;;;2.86;100.00;99519.75;5039859;28;20029;-80
2022/01/09 04:52:53;;;;;;;0.40;0.40;;;;;;;2.49;100.00;99488.16;5038163;28;20037;-77
2022/01/09 04:55:19;;;;;;;0.50;0.50;;;;;;;2.47;100.00;99506.06;5025645;28;20029;-78
2022/01/09 04:57:44;;;;;;;0.40;0.40;;;;;;;2.48;100.00;99528.09;5039886;28;20486;-78
2022/01/09 05:00:11;;;;;;;0.50;0.50;;;;;;;2.48;100.00;99497.09;5029387;28;20032;-77
2022/01/09 05:02:37;;;;;;;0.40;0.40;;;;;;;2.80;100.00;99530.97;5027937;28;20036;-77
2022/01/09 05:05:06;;;;;;;0.50;0.50;;;;;;;3.02;100.00;99542.09;5023617;28;20045;-77
2022/01/09 05:07:33;;;;;;;0.50;0.50;;;;;;;3.16;100.00;99527.38;5007997;28;20044;-77
2022/01/09 05:09:58;;;;;;;0.50;0.50;;;;;;;3.28;100.00;99512.81;5038315;28;20033;-78
2022/01/09 05:12:24;;;;;;;0.50;0.50;;;;;;;3.43;100.00;99540.44;5030343;28;20029;-77
2022/01/09 05:14:52;;;;;;;2.65;1.50;;;;;;;3.46;100.00;99524.19;5010599;28;20078;-77
2022/01/09 05:17:17;;;;;;;64.47;3.25;;;;;;;3.51;100.00;99511.25;5044196;28;20033;-77
2022/01/09 05:19:46;;;;;;;2.92;0.73;;;;;;;3.44;100.00;99523.53;5026057;28;20045;-76
2022/01/09 05:22:12;;;;;;;0.50;0.50;;;;;;;3.32;100.00;99503.56;5043402;28;20112;-77
2022/01/09 05:24:38;;;;;;;3.90;0.90;;;;;;;3.42;100.00;99522.84;5037823;28;20143;-77
2022/01/09 05:27:04;;;;;;;0.40;0.40;;;;;;;3.42;100.00;99509.56;5013499;28;20037;-77
2022/01/09 05:29:29;;;;;;;0.50;0.50;;;;;;;3.55;100.00;99535.69;5042410;28;20021;-78
2022/01/09 05:31:55;;;;;;;0.50;0.50;;;;;;;3.59;100.00;99538.88;5039898;28;20044;-77
2022/01/09 05:34:21;;;;;;;0.50;0.50;;;;;;;3.61;100.00;99532.38;5026528;28;20124;-78
2022/01/09 05:36:47;;;;;;;0.50;0.50;;;;;;;3.57;100.00;99531.03;5025685;28;20041;-77
2022/01/09 05:39:16;;;;;;;0.40;0.40;;;;;;;3.40;100.00;99531.97;5010680;28;20037;-76
2022/01/09 05:41:43;;;;;;;0.50;0.50;;;;;;;3.36;100.00;99539.44;5012202;28;21734;-78
2022/01/09 05:44:09;;;;;;;0.60;0.60;;;;;;;3.33;100.00;99538.91;5027462;28;20044;-78
2022/01/09 05:46:34;;;;;;;0.50;0.50;;;;;;;3.32;100.00;99539.91;5019979;28;20382;-77
2022/01/09 05:49:00;;;;;;;0.45;0.45;;;;;;;3.28;100.00;99550.88;5036597;28;20029;-77
2022/01/09 05:51:26;;;;;;;0.47;0.47;;;;;;;3.28;100.00;99550.00;5015583;28;20478;-78
2022/01/09 05:53:54;;;;;;;0.50;0.50;;;;;;;3.19;100.00;99535.03;5020325;28;20033;-78
2022/01/09 05:56:20;;;;;;;0.50;0.50;;;;;;;3.16;100.00;99527.38;5022300;28;20033;-76
2022/01/09 05:58:46;;;;;;;0.60;0.60;;;;;;;3.07;100.00;99539.81;5017062;28;20052;-76
2022/01/09 06:01:14;;;;;;;0.52;0.52;;;;;;;2.95;100.00;99549.84;5013298;28;20123;-77
2022/01/09 06:03:39;;;;;;;0.50;0.50;;;;;;;2.88;100.00;99534.69;5013687;28;20033;-76
2022/01/09 06:06:05;;;;;;;0.40;0.40;;;;;;;3.02;100.00;99545.56;5012274;28;20040;-76
2022/01/09 06:08:30;;;;;;;0.40;0.40;;;;;;;3.19;100.00;99551.81;5016292;28;20021;-76
2022/01/09 06:10:59;;;;;;;0.60;0.60;;;;;;;3.36;100.00;99541.25;5027624;28;20033;-76
2022/01/09 06:13:25;;;;;;;0.52;0.52;;;;;;;3.45;100.00;99525.19;5030257;28;20032;-78
2022/01/09 06:15:50;;;;;;;0.40;0.40;;;;;;;3.67;100.00;99552.19;5029261;28;20102;-75
2022/01/09 06:18:20;;;;;;;0.40;0.40;;;;;;;3.57;100.00;99548.81;5008999;28;20039;-76
2022/01/09 06:20:46;;;;;;;0.50;0.50;;;;;;;3.42;100.00;99549.44;5010029;28;20033;-76
2022/01/09 06:23:12;;;;;;;0.50;0.50;;;;;;;3.27;100.00;99533.25;5044066;28;20059;-77
2022/01/09 06:25:38;;;;;;;0.50;0.50;;;;;;;3.06;100.00;99523.00;5025343;28;20029;-76
2022/01/09 06:28:03;;;;;;;0.40;0.40;;;;;;;2.99;100.00;99535.28;5022329;28;20065;-76
2022/01/09 06:30:29;;;;;;;0.40;0.40;;;;;;;3.01;100.00;99551.84;5038442;28;20522;-77
2022/01/09 06:32:55;;;;;;;0.50;0.50;;;;;;;2.96;100.00;99538.22;5024347;28;20110;-76
2022/01/09 06:35:20;;;;;;;0.50;0.50;;;;;;;2.95;100.00;99535.72;5025107;28;20072;-76
2022/01/09 06:37:46;;;;;;;0.50;0.50;;;;;;;3.05;100.00;99547.91;5000498;28;20037;-78
2022/01/09 06:40:12;;;;;;;0.50;0.50;;;;;;;3.14;100.00;99550.63;5035441;28;20475;-76
2022/01/09 06:42:38;;;;;;;0.50;0.50;;;;;;;3.21;100.00;99536.53;5044068;28;20601;-76
2022/01/09 06:45:04;;;;;;;0.50;0.50;;;;;;;3.32;100.00;99550.53;5042163;28;20048;-77
2022/01/09 06:47:31;;;;;;;0.50;0.50;;;;;;;3.35;100.00;99548.38;5041153;28;20108;-77
2022/01/09 06:49:58;;;;;;;0.50;0.50;;;;;;;3.35;100.00;99548.38;5017173;28;20028;-76
2022/01/09 06:52:24;;;;;;;0.50;0.50;;;;;;;3.42;100.00;99557.41;5024871;28;20083;-79
2022/01/09 06:54:50;;;;;;;0.43;0.43;;;;;;;3.41;100.00;99555.72;5007888;28;20037;-75
2022/01/09 06:57:15;;;;;;;0.50;0.50;;;;;;;3.43;100.00;99556.41;5048459;28;20032;-77
2022/01/09 06:59:41;;;;;;;0.50;0.50;;;;;;;3.42;100.00;99553.91;5023969;28;20032;-78
2022/01/09 07:02:06;;;;;;;0.40;0.40;;;;;;;3.41;100.00;99563.69;5042637;28;20071;-77
2022/01/09 07:04:32;;;;;;;0.50;0.50;;;;;;;3.27;100.00;99575.75;5023944;28;20065;-77
2022/01/09 07:06:58;;;;;;;0.45;0.45;;;;;;;3.11;100.00;99573.00;5040899;28;20068;-76
2022/01/09 07:09:23;;;;;;;0.50;0.50;;;;;;;3.17;100.00;99574.19;5042480;28;20119;-75
2022/01/09 07:11:50;;;;;;;0.40;0.40;;;;;;;3.27;100.00;99577.59;5040905;28;20471;-76
2022/01/09 07:14:15;;;;;;;0.50;0.50;;;;;;;3.45;100.00;99578.34;5040380;28;20487;-76
2022/01/09 07:16:41;;;;;;;1.55;0.80;;;;;;;3.65;100.00;99580.75;5039919;28;20036;-76
2022/01/09 07:19:07;;;;;;;0.95;0.73;;;;;;;3.73;100.00;99586.94;5019999;28;20340;-75
2022/01/09 07:21:32;;;;;;;8.30;2.05;;;;;;;3.77;100.00;99563.50;5022542;28;20029;-77
2022/01/09 07:24:00;;;;;;;12.80;3.05;;;;;;;3.91;100.00;99554.06;5038906;28;20041;-76
2022/01/09 07:26:29;;;;;;;9.52;2.33;;;;;;;4.05;100.00;99577.41;5038214;28;20041;-76
2022/01/09 07:28:54;;;;;;;0.50;0.50;;;;;;;4.00;100.00;99573.56;5030511;28;20616;-78
2022/01/09 07:31:21;;;;;;;0.40;0.40;;;;;;;3.91;100.00;99576.19;5041903;28;20039;-79
2022/01/09 07:33:46;;;;;;;0.40;0.40;;;;;;;3.83;100.00;99568.19;5043897;28;20068;-80
2022/01/09 07:36:14;;;;;;;0.40;0.40;;;;;;;3.69;100.00;99566.16;5024316;28;20068;-78
2022/01/09 07:38:40;;;;;;;0.40;0.40;;;;;;;3.45;100.00;99559.75;5039000;28;20040;-80
2022/01/09 07:41:05;;;;;;;0.40;0.40;;;;;;;3.21;100.00;99546.34;5038751;28;20406;-77
2022/01/09 07:43:31;;;;;;;0.50;0.50;;;;;;;3.14;100.00;99546.13;5006732;28;20123;-79
2022/01/09 07:45:56;;;;;;;0.40;0.40;;;;;;;3.15;100.00;99558.44;5041278;28;22158;-77
2022/01/09 07:48:23;;;;;;;0.32;0.32;;;;;;;3.17;100.00;99561.75;5029466;28;20442;-77
2022/01/09 07:50:49;;;;;;;0.40;0.40;;;;;;;3.18;100.00;99557.28;5036769;28;20437;-77
2022/01/09 07:53:17;;;;;;;0.40;0.40;;;;;;;3.16;100.00;99551.28;5009568;28;20478;-78
2022/01/09 07:55:43;;;;;;;0.40;0.40;;;;;;;2.96;100.00;99546.19;5049503;28;20539;-79
2022/01/09 07:58:08;;;;;;;0.45;0.45;;;;;;;2.93;100.00;99562.44;5041054;28;20025;-78
2022/01/09 08:00:34;;;;;;;0.40;0.40;;;;;;;2.93;100.00;99572.22;5040617;28;20457;-78
2022/01/09 08:03:00;;;;;;;0.60;0.60;;;;;;;2.97;100.00;99565.63;5040813;28;20031;-78
2022/01/09 08:05:26;;;;;;;0.40;0.40;;;;;;;3.00;100.00;99563.47;5024266;28;20116;-79
2022/01/09 08:07:51;;;;;;;0.45;0.45;;;;;;;3.14;100.00;99571.84;5038964;28;20031;-78
2022/01/09 08:10:17;;;;;;;9.10;1.52;;;;;;;3.40;100.00;99554.06;5039689;28;20856;-77
2022/01/09 08:12:44;;;;;;;2.95;0.50;;;;;;;3.69;100.00;99564.31;5024342;28;20434;-79
2022/01/09 08:15:11;;;;;;;17.15;2.35;;;;;;;3.80;100.00;99557.03;5021999;28;20079;-78
2022/01/09 08:17:36;;;;;;;0.73;0.60;;;;;;;3.91;100.00;99559.41;5018454;28;20029;-79
2022/01/09 08:20:03;;;;;;;6.28;1.30;;;;;;;3.95;100.00;99576.72;5020437;28;20697;-77
2022/01/09 08:22:29;;;;;;;0.77;0.77;;;;;;;3.97;100.00;99572.88;5036431;28;22602;-77
2022/01/09 08:24:55;;;;;;;3.45;0.95;;;;;;;3.93;100.00;99587.50;5024610;28;20128;-77
2022/01/09 08:27:21;;;;;;;0.45;0.45;;;;;;;3.86;100.00;99588.28;5028478;28;20124;-79
2022/01/09 08:29:49;;;;;;;0.40;0.40;;;;;;;3.79;100.00;99596.09;5052380;28;20036;-77
2022/01/09 08:32:15;;;;;;;0.40;0.40;;;;;;;3.65;100.00;99583.41;5024224;28;20037;-76
2022/01/09 08:34:43;;;;;;;0.50;0.50;;;;;;;3.53;100.00;99589.00;5045203;28;20041;-76
2022/01/09 08:37:11;;;;;;;0.40;0.40;;;;;;;3.37;100.00;99585.44;5047973;28;20396;-76
2022/01/09 08:39:41;;;;;;;0.40;0.40;;;;;;;3.32;100.00;99588.56;5027563;28;20025;-76
2022/01/09 08:42:06;;;;;;;0.40;0.40;;;;;;;3.34;100.00;99594.56;5029759;28;20129;-77
2022/01/09 08:44:32;;;;;;;0.50;0.50;;;;;;;3.38;100.00;99581.78;5047948;28;20044;-76
2022/01/09 08:46:57;;;;;;;0.50;0.50;;;;;;;3.58;100.00;99595.69;5016955;28;20037;-75
2022/01/09 08:49:23;;;;;;;0.40;0.40;;;;;;;3.72;100.00;99608.34;5011641;28;20083;-77
2022/01/09 08:51:49;;;;;;;2.65;0.82;;;;;;;3.82;100.00;99635.66;5031036;28;20041;-76
2022/01/09 08:54:18;;;;;;;0.80;0.60;;;;;;;3.87;100.00;99633.34;5044595;28;20497;-76
2022/01/09 08:56:44;;;;;;;0.50;0.50;;;;;;;3.89;100.00;99614.56;5014165;28;20045;-76
2022/01/09 08:59:10;;;;;;;3.22;0.88;;;;;;;3.93;100.00;99623.91;5044838;28;20086;-76
2022/01/09 09:01:35;;;;;;;0.47;0.47;;;;;;;3.96;100.00;99643.00;5028629;28;20032;-76
2022/01/09 09:04:01;;;;;;;1.60;0.80;;;;;;;3.96;100.00;99634.22;5051555;28;20025;-78
2022/01/09 09:06:30;;;;;;;0.40;0.40;;;;;;;3.99;100.00;99625.06;5045678;28;20041;-76
2022/01/09 09:08:55;;;;;;;1.17;1.00;;;;;;;4.01;100.00;99634.56;5030339;28;20106;-76
2022/01/09 09:11:21;;;;;;;0.40;0.40;;;;;;;4.02;100.00;99616.78;5026441;28;20024;-76
2022/01/09 09:13:47;;;;;;;0.43;0.43;;;;;;;4.07;100.00;99623.25;5046575;28;20455;-75
2022/01/09 09:16:12;;;;;;;2.60;0.77;;;;;;;4.17;100.00;99615.97;5013402;28;22109;-76
2022/01/09 09:18:39;;;;;;;0.40;0.40;;;;;;;4.24;100.00;99618.00;5044148;28;20438;-76
2022/01/09 09:21:04;;;;;;;0.50;0.50;;;;;;;4.38;100.00;99630.66;5047438;28;20075;-78
2022/01/09 09:23:30;;;;;;;0.50;0.50;;;;;;;4.45;100.00;99618.38;5023526;28;20458;-76
2022/01/09 09:25:59;;;;;;;0.60;0.60;;;;;;;4.45;100.00;99596.25;5052601;28;20465;-77
2022/01/09 09:28:24;;;;;;;0.50;0.50;;;;;;;4.54;100.00;99592.59;5050793;28;20041;-77
2022/01/09 09:30:50;;;;;;;0.50;0.50;;;;;;;4.77;100.00;99622.91;5019686;28;20025;-77
2022/01/09 09:33:16;;;;;;;0.50;0.50;;;;;;;4.81;100.00;99618.88;5014723;28;20068;-76
2022/01/09 09:35:41;;;;;;;0.50;0.50;;;;;;;4.96;100.00;99624.38;5012129;28;20021;-76
2022/01/09 09:38:07;;;;;;;0.50;0.50;;;;;;;5.12;100.00;99609.38;5008869;28;20130;-77
2022/01/09 09:40:33;;;;;;;0.50;0.50;;;;;;;5.33;100.00;99627.50;5041181;28;20075;-78
2022/01/09 09:42:59;;;;;;;0.40;0.40;;;;;;;5.23;100.00;99617.84;5028290;28;20120;-75
2022/01/09 09:45:28;;;;;;;0.50;0.50;;;;;;;5.22;100.00;99626.88;5010109;28;20072;-76
2022/01/09 09:47:54;;;;;;;0.40;0.40;;;;;;;5.18;100.00;99624.69;5013953;28;20049;-76
2022/01/09 09:50:38;;;;;;;0.50;0.50;;;;;;;5.15;100.00;99625.03;5022900;28;20400;-76
2022/01/09 09:53:04;;;;;;;0.50;0.50;;;;;;;5.23;100.00;99631.19;5038402;28;20137;-78
2022/01/09 09:55:31;;;;;;;0.50;0.50;;;;;;;5.38;100.00;99630.50;5016195;28;20045;-76
2022/01/09 09:57:57;;;;;;;0.40;0.40;;;;;;;5.41;100.00;99625.66;5031022;28;20120;-76
2022/01/09 10:00:24;;;;;;;0.40;0.40;;;;;;;5.48;100.00;99626.66;5023579;28;20036;-78
2022/01/09 10:02:54;;;;;;;0.50;0.50;;;;;;;5.46;100.00;99631.31;5032114;28;20039;-79
2022/01/09 10:05:25;;;;;;;0.40;0.40;;;;;;;5.44;100.00;99627.97;5026658;28;20051;-78
2022/01/09 10:07:52;;;;;;;0.40;0.40;;;;;;;5.45;100.00;99631.47;5030363;28;20039;-78
2022/01/09 10:10:20;;;;;;;0.50;0.50;;;;;;;5.39;100.00;99617.00;5046817;28;20033;-77
2022/01/09 10:12:47;;;;;;;0.57;0.57;;;;;;;5.43;100.00;99626.31;5013989;28;20037;-77
2022/01/09 10:15:17;;;;;;;0.40;0.40;;;;;;;5.58;100.00;99631.75;5011081;28;20052;-77
2022/01/09 10:17:48;;;;;;;0.50;0.50;;;;;;;5.83;100.00;99637.03;5032554;28;20566;-77
2022/01/09 10:20:16;;;;;;;0.50;0.50;;;;;;;6.01;100.00;99629.66;5038039;28;20501;-77
2022/01/09 10:22:49;;;;;;;0.57;0.57;;;;;;;6.21;100.00;99632.72;5026873;28;20431;-78
2022/01/09 10:25:35;;;;;;;0.50;0.50;;;;;;;6.25;100.00;99619.88;5033646;28;20070;-79
2022/01/09 10:28:08;;;;;;;0.60;0.60;;;;;;;6.56;100.00;99631.34;5029911;28;20635;-80
2022/01/09 10:30:39;;;;;;;0.50;0.50;;;;;;;6.58;100.00;99648.00;5012247;28;20663;-79
2022/01/09 10:33:08;;;;;;;0.50;0.50;;;;;;;6.49;100.00;99632.22;5031624;28;20044;-81
2022/01/09 10:35:34;;;;;;;0.50;0.50;;;;;;;6.48;100.00;99642.06;5024432;28;20684;-78
2022/01/09 10:38:27;;;;;;;0.60;0.60;;;;;;;6.53;100.00;99646.88;5013401;28;20039;-78
2022/01/09 10:41:10;;;;;;;0.60;0.60;;;;;;;6.66;100.00;99641.78;5041271;28;20041;-80
2022/01/09 10:43:39;;;;;;;0.50;0.50;;;;;;;6.64;100.00;99621.59;5030338;28;20132;-78
2022/01/09 10:46:09;;;;;;;0.50;0.50;;;;;;;6.73;100.00;99633.91;5048116;28;20033;-78
2022/01/09 10:48:39;;;;;;;0.50;0.50;;;;;;;6.64;100.00;99632.28;5048324;28;20033;-80
2022/01/09 10:51:08;;;;;;;0.50;0.50;;;;;;;6.53;100.00;99620.16;5031712;28;20486;-78
2022/01/09 10:53:35;;;;;;;0.50;0.50;;;;;;;6.32;100.00;99594.09;5015995;28;20088;-78
2022/01/09 10:56:21;;;;;;;0.50;0.50;;;;;;;6.54;100.00;99632.53;5049570;28;20025;-78
2022/01/09 10:58:54;;;;;;;0.50;0.50;;;;;;;6.45;100.00;99626.38;5017451;28;20025;-78
2022/01/09 11:01:23;;;;;;;0.88;0.88;;;;;;;6.48;100.00;99636.72;5031955;28;20044;-78
2022/01/09 11:03:57;;;;;;;0.50;0.50;;;;;;;6.53;100.00;99622.84;5032627;28;20040;-77
2022/01/09 11:06:25;;;;;;;0.40;0.40;;;;;;;6.66;100.00;99623.06;5048548;28;20064;-78
2022/01/09 11:08:51;;;;;;;0.50;0.50;;;;;;;6.75;100.00;99607.84;5030011;28;20577;-79
2022/01/09 11:11:40;;;;;;;0.50;0.50;;;;;;;6.86;100.00;99628.78;5029501;28;20041;-78
2022/01/09 11:14:07;;;;;;;0.40;0.40;;;;;;;6.90;100.00;99627.41;5048940;28;20041;-78
2022/01/09 11:16:37;;;;;;;0.40;0.40;;;;;;;6.91;100.00;99628.25;5048798;28;20459;-78
2022/01/09 11:19:14;;;;;;;0.60;0.60;;;;;;;6.97;100.00;99625.69;5049311;28;20090;-78
2022/01/09 11:21:55;;;;;;;0.40;0.40;;;;;;;7.02;100.00;99622.47;5044490;28;20578;-78
2022/01/09 11:24:27;;;;;;;0.50;0.50;;;;;;;7.22;100.00;99628.97;5032635;28;20025;-78
2022/01/09 11:27:12;;;;;;;0.45;0.45;;;;;;;7.35;100.00;99631.00;5049798;28;20052;-78
2022/01/09 11:30:03;;;;;;;0.50;0.50;;;;;;;7.52;100.00;99628.19;5048582;28;20041;-77
2022/01/09 11:32:44;;;;;;;0.40;0.40;;;;;;;7.52;100.00;99614.81;5052599;28;20070;-77
2022/01/09 11:35:48;;;;;;;0.50;0.50;;;;;;;7.67;100.00;99643.22;5052948;28;20071;-78